| time (UTC) | temp F | wind direction | speed knots | gust knots | rain 1hr in | rain 24hr in | rain mn in | humidity % | barometer mb |
| 20260510190518 | 80 | 328 | 1.7 | 5.2 | 0.00 | 0.00 | 0.00 | 40 | 1015.3 |
| 20260510185517 | 79 | 325 | 1.7 | 3.5 | 0.00 | 0.00 | 0.00 | 41 | 1015.3 |
| 20260510184517 | 78 | 334 | 1.7 | 5.2 | 0.00 | 0.00 | 0.00 | 42 | 1015.4 |
| 20260510183518 | 78 | 16 | 1.7 | 3.5 | 0.00 | 0.00 | 0.00 | 42 | 1015.4 |
| 20260510182518 | 76 | 41 | 1.7 | 5.2 | 0.00 | 0.00 | 0.00 | 42 | 1015.6 |
| 20260510181519 | 76 | 12 | 1.7 | 5.2 | 0.00 | 0.00 | 0.00 | 43 | 1015.6 |
| 20260510180518 | 77 | 6 | 1.7 | 4.3 | 0.00 | 0.00 | 0.00 | 43 | 1015.7 |
| 20260510175519 | 79 | 342 | 1.7 | 5.2 | 0.00 | 0.00 | 0.00 | 41 | 1015.8 |
| 20260510174536 | 78 | 99 | 0.9 | 4.3 | 0.00 | 0.00 | 0.00 | 41 | 1015.8 |
| 20260510173516 | 79 | 349 | 2.6 | 7.0 | 0.00 | 0.00 | 0.00 | 41 | 1015.8 |
| 20260510172516 | 78 | 347 | 1.7 | 4.3 | 0.00 | 0.00 | 0.00 | 41 | 1016.0 |
| 20260510171516 | 79 | 352 | 1.7 | 5.2 | 0.00 | 0.00 | 0.00 | 41 | 1015.9 |
| 20260510170517 | 78 | 348 | 1.7 | 4.3 | 0.00 | 0.00 | 0.00 | 42 | 1016.2 |
| 20260510165516 | 77 | 2 | 1.7 | 5.2 | 0.00 | 0.00 | 0.00 | 41 | 1016.1 |
| 20260510164517 | 77 | 324 | 1.7 | 6.1 | 0.00 | 0.00 | 0.00 | 42 | 1016.1 |
| 20260510163517 | 76 | 224 | 1.7 | 7.0 | 0.00 | 0.00 | 0.00 | 44 | 1016.2 |
| 20260510162520 | 75 | 11 | 1.7 | 3.5 | 0.00 | 0.00 | 0.00 | 47 | 1016.3 |
| 20260510161517 | 76 | 336 | 1.7 | 5.2 | 0.00 | 0.00 | 0.00 | 46 | 1016.3 |
| 20260510160517 | 76 | 133 | 1.7 | 4.3 | 0.00 | 0.00 | 0.00 | 46 | 1016.4 |
| 20260510155517 | 75 | 304 | 1.7 | 7.0 | 0.00 | 0.00 | 0.00 | 48 | 1016.4 |
| 20260510154517 | 74 | 291 | 1.7 | 5.2 | 0.00 | 0.00 | 0.00 | 49 | 1016.6 |
| 20260510153538 | 74 | 297 | 1.7 | 5.2 | 0.00 | 0.00 | 0.00 | 49 | 1016.5 |
| 20260510152518 | 75 | 352 | 0.9 | 6.1 | 0.00 | 0.00 | 0.00 | 49 | 1016.5 |
| 20260510151518 | 73 | 4 | 1.7 | 4.3 | 0.00 | 0.00 | 0.00 | 51 | 1016.5 |
| 20260510150518 | 73 | 130 | 1.7 | 6.1 | 0.00 | 0.00 | 0.00 | 52 | 1016.6 |
| 20260510145518 | 72 | 20 | 0.9 | 3.5 | 0.00 | 0.00 | 0.00 | 54 | 1016.5 |
| 20260510144539 | 71 | 31 | 1.7 | 6.1 | 0.00 | 0.00 | 0.00 | 54 | 1016.6 |
| 20260510143516 | 70 | 99 | 1.7 | 6.1 | 0.00 | 0.00 | 0.00 | 55 | 1016.6 |
| 20260510142519 | 69 | 9 | 1.7 | 5.2 | 0.00 | 0.00 | 0.00 | 57 | 1016.6 |
| 20260510141516 | 68 | 18 | 1.7 | 7.0 | 0.00 | 0.00 | 0.00 | 58 | 1016.7 |
| 20260510140517 | 67 | 323 | 0.9 | 3.5 | 0.00 | 0.00 | 0.00 | 60 | 1016.7 |
| 20260510135537 | 66 | 268 | 1.7 | 3.5 | 0.00 | 0.00 | 0.00 | 62 | 1016.7 |
| 20260510134517 | 64 | 334 | 1.7 | 3.5 | 0.00 | 0.00 | 0.00 | 65 | 1016.9 |
| 20260510133517 | 62 | 67 | 0.9 | 2.6 | 0.00 | 0.00 | 0.00 | 70 | 1017.1 |
| 20260510132517 | 59 | 334 | 0.9 | 3.5 | 0.00 | 0.00 | 0.00 | 75 | 1017.0 |
| 20260510131517 | 56 | 269 | 0.9 | 2.6 | 0.00 | 0.00 | 0.00 | 79 | 1017.0 |
| 20260510130524 | 52 | 360 | 0.9 | 1.7 | 0.00 | 0.00 | 0.00 | 89 | 1017.0 |
| 20260510125545 | 50 | 28 | 0.0 | 0.9 | 0.00 | 0.00 | 0.00 | 95 | 1017.0 |
| 20260510124523 | 49 | 341 | 0.0 | 0.9 | 0.00 | 0.00 | 0.00 | 96 | 1017.0 |
| 20260510123524 | 47 | 46 | 0.0 | 0.9 | 0.00 | 0.00 | 0.00 | 96 | 1016.8 |
| 20260510122539 | 45 | 142 | 0.0 | 0.9 | 0.00 | 0.00 | 0.00 | 96 | 1016.7 |
| 20260510121539 | 44 | 6 | 0.0 | 0.9 | 0.00 | 0.00 | 0.00 | 96 | 1016.6 |
| 20260510120524 | 42 | 63 | 0.0 | 1.7 | 0.00 | 0.00 | 0.00 | 96 | 1016.5 |
| 20260510115525 | 41 | 265 | 0.0 | 0.9 | 0.00 | 0.00 | 0.00 | 95 | 1016.5 |
| 20260510114524 | 40 | 0.0 | 0.0 | 0.00 | 0.00 | 0.00 | 95 | 1016.5 | |
| 20260510113525 | 40 | 0.0 | 0.0 | 0.00 | 0.00 | 0.00 | 95 | 1016.4 | |
| 20260510112525 | 39 | 0.0 | 0.0 | 0.00 | 0.00 | 0.00 | 95 | 1016.2 | |
| 20260510111525 | 38 | 154 | 0.0 | 0.9 | 0.00 | 0.00 | 0.00 | 95 | 1016.0 |
| 20260510110525 | 38 | 141 | 0.0 | 1.7 | 0.00 | 0.00 | 0.00 | 95 | 1015.9 |
| 20260510105525 | 38 | 71 | 0.0 | 0.9 | 0.00 | 0.00 | 0.00 | 95 | 1015.6 |
| 20260510104525 | 38 | 49 | 0.0 | 0.9 | 0.00 | 0.00 | 0.00 | 95 | 1015.5 |
| 20260510103606 | 38 | 0.0 | 0.0 | 0.00 | 0.00 | 0.00 | 95 | 1015.3 | |
| 20260510102526 | 38 | 0.0 | 0.0 | 0.00 | 0.00 | 0.00 | 95 | 1015.3 | |
| 20260510101517 | 38 | 0.0 | 0.0 | 0.00 | 0.00 | 0.00 | 95 | 1015.2 | |
| 20260510100518 | 38 | 31 | 0.0 | 0.9 | 0.00 | 0.00 | 0.00 | 95 | 1015.1 |
| 20260510095518 | 38 | 54 | 0.0 | 0.9 | 0.00 | 0.00 | 0.00 | 95 | 1015.0 |
| 20260510094518 | 39 | 41 | 0.0 | 0.9 | 0.00 | 0.00 | 0.00 | 95 | 1015.0 |
| 20260510093518 | 39 | 47 | 0.0 | 0.9 | 0.00 | 0.00 | 0.00 | 95 | 1014.9 |
| 20260510092515 | 39 | 0.0 | 0.0 | 0.00 | 0.00 | 0.00 | 95 | 1014.9 | |
| 20260510091516 | 39 | 33 | 0.0 | 0.9 | 0.00 | 0.00 | 0.00 | 95 | 1014.8 |
| 20260510090517 | 39 | 125 | 0.0 | 0.9 | 0.00 | 0.00 | 0.00 | 94 | 1014.7 |
| 20260510085516 | 39 | 174 | 0.0 | 0.9 | 0.00 | 0.00 | 0.00 | 94 | 1014.7 |
| 20260510084556 | 39 | 185 | 0.0 | 0.9 | 0.00 | 0.00 | 0.00 | 94 | 1014.7 |
| 20260510083517 | 39 | 33 | 0.0 | 0.9 | 0.00 | 0.00 | 0.00 | 94 | 1014.6 |
| 20260510082536 | 40 | 100 | 0.0 | 0.0 | 0.00 | 0.00 | 0.00 | 94 | 1014.6 |
| 20260510081517 | 40 | 32 | 0.0 | 1.7 | 0.00 | 0.00 | 0.00 | 94 | 1014.5 |
| 20260510080517 | 40 | 0.0 | 0.0 | 0.00 | 0.00 | 0.00 | 94 | 1014.4 | |
| 20260510075517 | 40 | 23 | 0.0 | 0.9 | 0.00 | 0.00 | 0.00 | 94 | 1014.2 |
| 20260510074517 | 40 | 132 | 0.0 | 0.9 | 0.00 | 0.00 | 0.00 | 94 | 1014.1 |
| 20260510073538 | 40 | 133 | 0.0 | 1.7 | 0.00 | 0.00 | 0.00 | 94 | 1014.1 |
| 20260510072518 | 41 | 48 | 0.0 | 0.0 | 0.00 | 0.00 | 0.00 | 94 | 1014.1 |
| 20260510071517 | 41 | 116 | 0.0 | 0.9 | 0.00 | 0.00 | 0.00 | 94 | 1014.0 |
| 20260510070518 | 41 | 99 | 0.0 | 0.9 | 0.00 | 0.00 | 0.00 | 94 | 1013.9 |
| 20260510065538 | 41 | 101 | 0.0 | 0.9 | 0.00 | 0.00 | 0.00 | 94 | 1013.8 |
| 20260510064538 | 41 | 142 | 0.0 | 0.9 | 0.00 | 0.00 | 0.00 | 93 | 1013.9 |
| 20260510063536 | 41 | 121 | 0.0 | 0.9 | 0.00 | 0.00 | 0.00 | 93 | 1013.9 |
| 20260510062516 | 42 | 70 | 0.0 | 0.9 | 0.00 | 0.00 | 0.00 | 93 | 1014.0 |
| 20260510061516 | 42 | 84 | 0.0 | 0.0 | 0.00 | 0.00 | 0.00 | 93 | 1014.0 |
| 20260510060536 | 42 | 127 | 0.0 | 1.7 | 0.00 | 0.00 | 0.00 | 93 | 1013.9 |
| 20260510055522 | 43 | 55 | 0.0 | 0.0 | 0.00 | 0.00 | 0.00 | 93 | 1013.9 |
| 20260510054517 | 43 | 67 | 0.0 | 1.7 | 0.00 | 0.00 | 0.00 | 93 | 1014.0 |
| 20260510053520 | 43 | 235 | 0.0 | 0.9 | 0.00 | 0.00 | 0.00 | 92 | 1014.0 |
| 20260510052517 | 43 | 116 | 0.0 | 0.9 | 0.00 | 0.00 | 0.00 | 92 | 1013.9 |
| 20260510051520 | 43 | 14 | 0.0 | 0.9 | 0.00 | 0.00 | 0.00 | 92 | 1014.0 |
| 20260510050517 | 44 | 90 | 0.0 | 0.9 | 0.00 | 0.00 | 0.00 | 92 | 1014.0 |
| 20260510045517 | 44 | 258 | 0.0 | 0.9 | 0.00 | 0.00 | 0.00 | 92 | 1014.0 |
| 20260510044517 | 44 | 44 | 0.0 | 0.9 | 0.00 | 0.00 | 0.00 | 91 | 1013.9 |
| 20260510043517 | 45 | 126 | 0.0 | 1.7 | 0.00 | 0.00 | 0.00 | 91 | 1013.8 |
| 20260510042517 | 45 | 58 | 0.0 | 1.7 | 0.00 | 0.00 | 0.00 | 91 | 1013.9 |
| 20260510041538 | 45 | 149 | 0.0 | 1.7 | 0.00 | 0.00 | 0.00 | 91 | 1013.9 |
| 20260510040519 | 46 | 70 | 0.0 | 1.7 | 0.00 | 0.00 | 0.00 | 90 | 1013.8 |
| 20260510035516 | 46 | 108 | 0.0 | 1.7 | 0.00 | 0.00 | 0.00 | 90 | 1013.7 |
| 20260510034518 | 46 | 125 | 0.9 | 1.7 | 0.00 | 0.00 | 0.00 | 89 | 1013.7 |
| 20260510033515 | 47 | 21 | 0.0 | 0.9 | 0.00 | 0.00 | 0.00 | 88 | 1013.7 |
| 20260510032516 | 47 | 156 | 0.0 | 0.9 | 0.00 | 0.00 | 0.00 | 88 | 1013.6 |
| 20260510031557 | 48 | 34 | 0.0 | 1.7 | 0.00 | 0.00 | 0.00 | 87 | 1013.6 |
| 20260510030516 | 48 | 118 | 0.0 | 1.7 | 0.00 | 0.00 | 0.00 | 87 | 1013.6 |
| 20260510025516 | 49 | 0.0 | 0.0 | 0.00 | 0.00 | 0.00 | 86 | 1013.7 | |
| 20260510024517 | 49 | 85 | 0.0 | 1.7 | 0.00 | 0.00 | 0.00 | 85 | 1013.6 |
| 20260510023516 | 50 | 360 | 0.0 | 0.9 | 0.00 | 0.00 | 0.00 | 84 | 1013.4 |
| 20260510022517 | 50 | 140 | 0.0 | 0.9 | 0.00 | 0.00 | 0.00 | 84 | 1013.3 |
| 20260510021517 | 51 | 39 | 0.0 | 0.9 | 0.00 | 0.00 | 0.00 | 82 | 1013.2 |
| 20260510020517 | 51 | 19 | 0.0 | 0.9 | 0.00 | 0.00 | 0.00 | 81 | 1013.0 |
| 20260510015517 | 52 | 53 | 0.0 | 0.9 | 0.00 | 0.00 | 0.00 | 81 | 1012.9 |
| 20260510014518 | 53 | 86 | 0.0 | 0.9 | 0.00 | 0.00 | 0.00 | 80 | 1012.7 |
| 20260510013518 | 53 | 286 | 0.0 | 0.0 | 0.00 | 0.00 | 0.00 | 78 | 1012.5 |
| 20260510012518 | 54 | 325 | 0.0 | 0.9 | 0.00 | 0.00 | 0.00 | 77 | 1012.2 |
| 20260510011518 | 55 | 6 | 0.0 | 0.9 | 0.00 | 0.00 | 0.00 | 76 | 1012.0 |
| 20260510010518 | 56 | 132 | 0.0 | 0.9 | 0.00 | 0.00 | 0.00 | 74 | 1011.9 |
| 20260510005518 | 57 | 104 | 0.0 | 0.9 | 0.00 | 0.00 | 0.00 | 73 | 1011.8 |
| 20260510004556 | 58 | 358 | 0.0 | 0.9 | 0.00 | 0.00 | 0.00 | 71 | 1011.7 |
| 20260510003536 | 59 | 283 | 0.0 | 1.7 | 0.00 | 0.00 | 0.00 | 68 | 1011.7 |
| 20260510002516 | 60 | 306 | 0.0 | 0.9 | 0.00 | 0.00 | 0.00 | 66 | 1011.6 |
| 20260510001536 | 61 | 230 | 0.0 | 0.9 | 0.00 | 0.00 | 0.00 | 64 | 1011.5 |
| 20260510000516 | 63 | 212 | 0.0 | 0.9 | 0.00 | 0.00 | 0.00 | 63 | 1011.3 |
| 20260509235536 | 64 | 345 | 0.0 | 0.9 | 0.00 | 0.00 | 0.00 | 61 | 1011.2 |
| 20260509234517 | 65 | 239 | 0.9 | 2.6 | 0.00 | 0.00 | 0.00 | 57 | 1011.0 |
| 20260509233517 | 66 | 299 | 0.9 | 2.6 | 0.00 | 0.00 | 0.00 | 54 | 1010.9 |
| 20260509232517 | 67 | 316 | 0.9 | 3.5 | 0.00 | 0.00 | 0.00 | 52 | 1010.8 |
| 20260509231518 | 69 | 253 | 0.9 | 2.6 | 0.00 | 0.00 | 0.00 | 51 | 1010.9 |
| 20260509230538 | 70 | 327 | 0.9 | 4.3 | 0.00 | 0.00 | 0.00 | 49 | 1010.8 |
| 20260509225517 | 70 | 330 | 1.7 | 5.2 | 0.00 | 0.00 | 0.00 | 47 | 1010.8 |
| 20260509224518 | 70 | 266 | 1.7 | 6.1 | 0.00 | 0.00 | 0.00 | 49 | 1010.8 |
| 20260509223538 | 70 | 11 | 1.7 | 6.1 | 0.00 | 0.00 | 0.00 | 48 | 1010.8 |
| 20260509222518 | 70 | 11 | 1.7 | 5.2 | 0.00 | 0.00 | 0.00 | 48 | 1010.8 |
| 20260509221538 | 70 | 29 | 1.7 | 3.5 | 0.00 | 0.00 | 0.00 | 47 | 1010.8 |
| 20260509220515 | 70 | 23 | 1.7 | 6.1 | 0.00 | 0.00 | 0.00 | 47 | 1010.7 |
| 20260509215516 | 70 | 279 | 1.7 | 5.2 | 0.00 | 0.00 | 0.00 | 47 | 1010.7 |
| 20260509214517 | 69 | 326 | 1.7 | 6.1 | 0.00 | 0.00 | 0.00 | 47 | 1010.6 |
| 20260509213517 | 69 | 337 | 1.7 | 4.3 | 0.00 | 0.00 | 0.00 | 48 | 1010.6 |
| 20260509212517 | 69 | 242 | 1.7 | 5.2 | 0.00 | 0.00 | 0.00 | 46 | 1010.4 |
| 20260509211517 | 71 | 337 | 2.6 | 6.1 | 0.00 | 0.00 | 0.00 | 45 | 1010.4 |
| 20260509210517 | 71 | 86 | 1.7 | 5.2 | 0.00 | 0.00 | 0.00 | 46 | 1010.2 |
| 20260509205517 | 71 | 277 | 1.7 | 3.5 | 0.00 | 0.00 | 0.00 | 46 | 1010.2 |
| 20260509204517 | 71 | 324 | 0.9 | 3.5 | 0.00 | 0.00 | 0.00 | 46 | 1010.2 |
| 20260509203517 | 71 | 10 | 0.9 | 2.6 | 0.00 | 0.00 | 0.00 | 46 | 1010.1 |
| 20260509202517 | 72 | 326 | 0.9 | 3.5 | 0.00 | 0.00 | 0.00 | 46 | 1010.0 |
| 20260509201518 | 72 | 71 | 1.7 | 3.5 | 0.00 | 0.00 | 0.00 | 47 | 1010.0 |
| 20260509200518 | 72 | 156 | 0.9 | 5.2 | 0.00 | 0.00 | 0.00 | 45 | 1010.0 |
| 20260509195518 | 73 | 185 | 1.7 | 5.2 | 0.00 | 0.00 | 0.00 | 44 | 1009.9 |
| 20260509194518 | 73 | 8 | 1.7 | 4.3 | 0.00 | 0.00 | 0.00 | 43 | 1010.0 |
| 20260509193518 | 71 | 19 | 1.7 | 4.3 | 0.00 | 0.00 | 0.00 | 45 | 1009.9 |
| 20260509192519 | 72 | 316 | 0.9 | 5.2 | 0.00 | 0.00 | 0.00 | 45 | 1009.9 |
| 20260509191518 | 72 | 15 | 0.9 | 5.2 | 0.00 | 0.00 | 0.00 | 44 | 1009.8 |